sensor_id;sensor_type;location;lat;lon;timestamp;noise_LAeq;noise_LA_min;noise_LA_max;noise_LA01;noise_LA95
71020;Laerm;58902;51.436;5.980;2024-01-07T00:00:04;34.69;31.82;37.78;;
71020;Laerm;58902;51.436;5.980;2024-01-07T00:00:15;42.63;30.74;55.17;;
71020;Laerm;58902;51.436;5.980;2024-01-07T00:00:26;31.68;30.35;33.68;;
71020;Laerm;58902;51.436;5.980;2024-01-07T00:00:36;31.76;30.48;33.41;;
71020;Laerm;58902;51.436;5.980;2024-01-07T00:00:47;32.16;30.16;33.72;;
71020;Laerm;58902;51.436;5.980;2024-01-07T00:00:57;32.04;30.57;34.59;;
71020;Laerm;58902;51.436;5.980;2024-01-07T00:01:08;31.92;30.47;34.10;;
71020;Laerm;58902;51.436;5.980;2024-01-07T00:01:19;31.88;30.36;33.38;;
71020;Laerm;58902;51.436;5.980;2024-01-07T00:01:29;31.75;30.40;33.77;;
71020;Laerm;58902;51.436;5.980;2024-01-07T00:01:39;32.08;30.34;41.44;;
71020;Laerm;58902;51.436;5.980;2024-01-07T00:01:50;33.91;30.58;41.91;;
71020;Laerm;58902;51.436;5.980;2024-01-07T00:02:00;35.32;30.62;49.27;;
71020;Laerm;58902;51.436;5.980;2024-01-07T00:02:10;34.84;30.71;43.96;;
71020;Laerm;58902;51.436;5.980;2024-01-07T00:02:21;36.30;30.73;45.01;;
71020;Laerm;58902;51.436;5.980;2024-01-07T00:02:31;33.47;31.42;37.65;;
71020;Laerm;58902;51.436;5.980;2024-01-07T00:02:42;37.07;33.12;43.66;;
71020;Laerm;58902;51.436;5.980;2024-01-07T00:02:52;33.35;31.11;37.11;;
71020;Laerm;58902;51.436;5.980;2024-01-07T00:03:02;32.30;30.84;35.82;;
71020;Laerm;58902;51.436;5.980;2024-01-07T00:03:13;32.47;31.19;34.54;;
71020;Laerm;58902;51.436;5.980;2024-01-07T00:03:23;32.27;30.32;38.83;;
71020;Laerm;58902;51.436;5.980;2024-01-07T00:03:34;32.03;30.28;33.85;;
71020;Laerm;58902;51.436;5.980;2024-01-07T00:03:44;33.15;31.17;39.83;;
71020;Laerm;58902;51.436;5.980;2024-01-07T00:03:54;32.82;30.59;36.86;;
71020;Laerm;58902;51.436;5.980;2024-01-07T00:04:05;32.61;30.81;36.69;;
71020;Laerm;58902;51.436;5.980;2024-01-07T00:04:15;38.26;32.93;42.92;;
71020;Laerm;58902;51.436;5.980;2024-01-07T00:04:25;37.34;32.16;42.62;;
71020;Laerm;58902;51.436;5.980;2024-01-07T00:04:36;34.70;31.59;41.94;;
71020;Laerm;58902;51.436;5.980;2024-01-07T00:04:47;33.07;30.84;37.32;;
71020;Laerm;58902;51.436;5.980;2024-01-07T00:04:57;36.10;33.25;38.82;;
71020;Laerm;58902;51.436;5.980;2024-01-07T00:05:11;33.00;30.42;36.61;;
71020;Laerm;58902;51.436;5.980;2024-01-07T00:05:22;31.90;30.01;34.37;;
71020;Laerm;58902;51.436;5.980;2024-01-07T00:05:32;32.03;30.32;33.98;;
71020;Laerm;58902;51.436;5.980;2024-01-07T00:05:42;31.98;30.29;33.83;;
71020;Laerm;58902;51.436;5.980;2024-01-07T00:05:53;31.89;29.82;35.91;;
71020;Laerm;58902;51.436;5.980;2024-01-07T00:06:03;31.56;29.94;33.03;;
71020;Laerm;58902;51.436;5.980;2024-01-07T00:06:14;31.39;30.03;33.63;;
71020;Laerm;58902;51.436;5.980;2024-01-07T00:06:24;32.42;30.16;37.78;;
71020;Laerm;58902;51.436;5.980;2024-01-07T00:06:34;32.00;30.34;35.38;;
71020;Laerm;58902;51.436;5.980;2024-01-07T00:06:46;32.28;30.54;36.16;;
71020;Laerm;58902;51.436;5.980;2024-01-07T00:06:56;32.12;30.14;38.01;;
71020;Laerm;58902;51.436;5.980;2024-01-07T00:07:06;32.01;30.47;35.37;;
71020;Laerm;58902;51.436;5.980;2024-01-07T00:07:17;31.96;30.35;35.87;;
71020;Laerm;58902;51.436;5.980;2024-01-07T00:07:27;32.24;30.44;37.97;;
71020;Laerm;58902;51.436;5.980;2024-01-07T00:07:37;32.25;29.91;36.33;;
71020;Laerm;58902;51.436;5.980;2024-01-07T00:07:48;31.61;30.35;33.11;;
71020;Laerm;58902;51.436;5.980;2024-01-07T00:08:00;31.40;29.91;33.21;;
71020;Laerm;58902;51.436;5.980;2024-01-07T00:08:11;31.57;30.25;32.99;;
71020;Laerm;58902;51.436;5.980;2024-01-07T00:08:21;32.40;30.64;36.35;;
71020;Laerm;58902;51.436;5.980;2024-01-07T00:08:31;33.14;31.46;37.00;;
71020;Laerm;58902;51.436;5.980;2024-01-07T00:08:42;32.17;30.80;34.09;;
71020;Laerm;58902;51.436;5.980;2024-01-07T00:08:52;32.24;30.38;35.12;;
71020;Laerm;58902;51.436;5.980;2024-01-07T00:09:02;32.41;30.24;39.60;;
71020;Laerm;58902;51.436;5.980;2024-01-07T00:09:13;31.40;30.12;32.87;;
71020;Laerm;58902;51.436;5.980;2024-01-07T00:09:23;31.39;29.99;34.17;;
71020;Laerm;58902;51.436;5.980;2024-01-07T00:09:33;31.68;30.29;33.81;;
71020;Laerm;58902;51.436;5.980;2024-01-07T00:09:44;33.73;30.05;40.20;;
71020;Laerm;58902;51.436;5.980;2024-01-07T00:09:54;41.69;35.05;50.72;;
71020;Laerm;58902;51.436;5.980;2024-01-07T00:10:04;33.80;30.57;40.34;;
71020;Laerm;58902;51.436;5.980;2024-01-07T00:10:15;31.65;30.06;36.63;;
71020;Laerm;58902;51.436;5.980;2024-01-07T00:10:25;32.27;30.64;34.65;;
71020;Laerm;58902;51.436;5.980;2024-01-07T00:10:36;32.21;30.44;34.54;;
71020;Laerm;58902;51.436;5.980;2024-01-07T00:10:46;32.04;30.43;36.14;;
71020;Laerm;58902;51.436;5.980;2024-01-07T00:10:56;32.91;30.55;37.47;;
71020;Laerm;58902;51.436;5.980;2024-01-07T00:11:06;32.49;30.64;38.04;;
71020;Laerm;58902;51.436;5.980;2024-01-07T00:11:17;35.14;30.56;45.85;;
71020;Laerm;58902;51.436;5.980;2024-01-07T00:11:27;31.59;29.97;34.91;;
71020;Laerm;58902;51.436;5.980;2024-01-07T00:11:38;31.89;30.33;34.27;;
71020;Laerm;58902;51.436;5.980;2024-01-07T00:11:49;34.81;30.64;38.89;;
71020;Laerm;58902;51.436;5.980;2024-01-07T00:11:59;34.59;30.66;38.45;;
71020;Laerm;58902;51.436;5.980;2024-01-07T00:12:10;32.18;30.10;34.65;;
71020;Laerm;58902;51.436;5.980;2024-01-07T00:12:20;32.55;31.09;35.92;;
71020;Laerm;58902;51.436;5.980;2024-01-07T00:12:31;32.23;30.31;34.48;;
71020;Laerm;58902;51.436;5.980;2024-01-07T00:12:41;33.69;31.90;35.73;;
71020;Laerm;58902;51.436;5.980;2024-01-07T00:12:52;36.75;32.51;40.78;;
71020;Laerm;58902;51.436;5.980;2024-01-07T00:13:02;35.81;30.44;40.38;;
71020;Laerm;58902;51.436;5.980;2024-01-07T00:13:12;33.08;31.17;38.73;;
71020;Laerm;58902;51.436;5.980;2024-01-07T00:13:23;40.47;32.95;45.69;;
71020;Laerm;58902;51.436;5.980;2024-01-07T00:13:33;34.45;30.76;38.03;;
71020;Laerm;58902;51.436;5.980;2024-01-07T00:13:44;31.82;30.20;33.31;;
71020;Laerm;58902;51.436;5.980;2024-01-07T00:13:55;31.35;29.84;34.23;;
71020;Laerm;58902;51.436;5.980;2024-01-07T00:14:05;31.69;30.08;33.47;;
71020;Laerm;58902;51.436;5.980;2024-01-07T00:14:16;31.65;29.87;32.95;;
71020;Laerm;58902;51.436;5.980;2024-01-07T00:14:27;31.34;29.63;33.73;;
71020;Laerm;58902;51.436;5.980;2024-01-07T00:14:37;31.20;29.45;33.37;;
71020;Laerm;58902;51.436;5.980;2024-01-07T00:14:47;31.20;29.50;34.74;;
71020;Laerm;58902;51.436;5.980;2024-01-07T00:14:58;42.48;30.00;53.02;;
71020;Laerm;58902;51.436;5.980;2024-01-07T00:15:08;33.02;29.46;50.53;;
71020;Laerm;58902;51.436;5.980;2024-01-07T00:15:18;44.49;30.61;57.13;;
71020;Laerm;58902;51.436;5.980;2024-01-07T00:15:29;38.08;29.96;48.65;;
71020;Laerm;58902;51.436;5.980;2024-01-07T00:15:40;37.08;30.06;48.99;;
71020;Laerm;58902;51.436;5.980;2024-01-07T00:15:50;31.72;29.52;38.17;;
71020;Laerm;58902;51.436;5.980;2024-01-07T00:16:01;30.61;29.30;32.43;;
71020;Laerm;58902;51.436;5.980;2024-01-07T00:16:11;30.80;29.45;33.41;;
71020;Laerm;58902;51.436;5.980;2024-01-07T00:16:21;31.27;29.90;35.52;;
71020;Laerm;58902;51.436;5.980;2024-01-07T00:16:31;34.29;29.79;45.98;;
71020;Laerm;58902;51.436;5.980;2024-01-07T00:16:42;38.30;29.92;50.86;;
71020;Laerm;58902;51.436;5.980;2024-01-07T00:16:52;30.89;29.35;32.88;;
71020;Laerm;58902;51.436;5.980;2024-01-07T00:17:03;30.60;29.01;32.79;;
71020;Laerm;58902;51.436;5.980;2024-01-07T00:17:13;30.63;29.23;33.48;;
71020;Laerm;58902;51.436;5.980;2024-01-07T00:17:24;31.06;29.70;36.15;;
71020;Laerm;58902;51.436;5.980;2024-01-07T00:17:36;32.05;30.00;36.86;;
71020;Laerm;58902;51.436;5.980;2024-01-07T00:17:46;31.70;29.79;38.00;;
71020;Laerm;58902;51.436;5.980;2024-01-07T00:17:56;31.61;29.93;36.97;;
71020;Laerm;58902;51.436;5.980;2024-01-07T00:18:07;31.20;29.94;33.80;;
71020;Laerm;58902;51.436;5.980;2024-01-07T00:18:17;32.64;30.00;39.48;;
71020;Laerm;58902;51.436;5.980;2024-01-07T00:18:28;34.52;32.01;38.34;;
71020;Laerm;58902;51.436;5.980;2024-01-07T00:18:38;36.39;32.86;42.69;;
71020;Laerm;58902;51.436;5.980;2024-01-07T00:18:49;39.68;30.84;47.18;;
71020;Laerm;58902;51.436;5.980;2024-01-07T00:18:59;32.85;29.58;35.67;;
71020;Laerm;58902;51.436;5.980;2024-01-07T00:19:09;31.37;30.11;33.57;;
71020;Laerm;58902;51.436;5.980;2024-01-07T00:19:20;31.52;29.76;33.65;;
71020;Laerm;58902;51.436;5.980;2024-01-07T00:19:30;31.48;29.98;35.50;;
71020;Laerm;58902;51.436;5.980;2024-01-07T00:19:45;31.25;29.49;36.58;;
71020;Laerm;58902;51.436;5.980;2024-01-07T00:19:56;30.85;29.55;32.59;;
71020;Laerm;58902;51.436;5.980;2024-01-07T00:20:06;30.77;29.43;32.11;;
71020;Laerm;58902;51.436;5.980;2024-01-07T00:20:17;31.20;29.61;38.57;;
71020;Laerm;58902;51.436;5.980;2024-01-07T00:20:27;31.02;29.85;32.56;;
71020;Laerm;58902;51.436;5.980;2024-01-07T00:20:37;31.16;29.57;33.70;;
71020;Laerm;58902;51.436;5.980;2024-01-07T00:20:48;31.15;29.88;32.57;;
71020;Laerm;58902;51.436;5.980;2024-01-07T00:20:58;31.00;29.45;35.18;;
71020;Laerm;58902;51.436;5.980;2024-01-07T00:21:08;32.58;29.62;40.26;;
71020;Laerm;58902;51.436;5.980;2024-01-07T00:21:19;32.05;29.78;40.20;;
71020;Laerm;58902;51.436;5.980;2024-01-07T00:21:30;30.98;29.61;32.58;;
71020;Laerm;58902;51.436;5.980;2024-01-07T00:21:41;31.07;29.66;32.71;;
71020;Laerm;58902;51.436;5.980;2024-01-07T00:21:51;31.47;29.98;33.37;;
71020;Laerm;58902;51.436;5.980;2024-01-07T00:22:01;32.15;30.20;36.59;;
71020;Laerm;58902;51.436;5.980;2024-01-07T00:22:12;37.76;29.96;50.36;;
71020;Laerm;58902;51.436;5.980;2024-01-07T00:22:22;31.36;29.75;39.20;;
71020;Laerm;58902;51.436;5.980;2024-01-07T00:22:33;32.50;29.49;40.39;;
71020;Laerm;58902;51.436;5.980;2024-01-07T00:22:43;31.64;29.70;38.55;;
71020;Laerm;58902;51.436;5.980;2024-01-07T00:22:53;31.06;29.65;35.37;;
71020;Laerm;58902;51.436;5.980;2024-01-07T00:23:04;30.73;29.34;32.90;;
71020;Laerm;58902;51.436;5.980;2024-01-07T00:23:14;30.68;29.43;34.09;;
71020;Laerm;58902;51.436;5.980;2024-01-07T00:23:24;31.32;29.84;33.79;;
71020;Laerm;58902;51.436;5.980;2024-01-07T00:23:35;31.50;29.54;33.11;;
71020;Laerm;58902;51.436;5.980;2024-01-07T00:23:45;33.76;30.87;41.22;;
71020;Laerm;58902;51.436;5.980;2024-01-07T00:23:56;33.56;31.81;36.22;;
71020;Laerm;58902;51.436;5.980;2024-01-07T00:24:06;33.92;31.69;36.84;;
71020;Laerm;58902;51.436;5.980;2024-01-07T00:24:16;33.94;31.91;38.66;;
71020;Laerm;58902;51.436;5.980;2024-01-07T00:24:27;33.57;31.94;39.70;;
71020;Laerm;58902;51.436;5.980;2024-01-07T00:24:39;33.36;31.82;37.74;;
71020;Laerm;58902;51.436;5.980;2024-01-07T00:24:49;33.96;31.89;37.91;;
71020;Laerm;58902;51.436;5.980;2024-01-07T00:24:59;33.50;31.48;36.12;;
71020;Laerm;58902;51.436;5.980;2024-01-07T00:25:10;33.45;31.91;37.81;;
71020;Laerm;58902;51.436;5.980;2024-01-07T00:25:20;33.82;31.94;39.43;;
71020;Laerm;58902;51.436;5.980;2024-01-07T00:25:31;34.82;32.65;37.92;;
71020;Laerm;58902;51.436;5.980;2024-01-07T00:25:42;37.16;32.86;42.05;;
71020;Laerm;58902;51.436;5.980;2024-01-07T00:25:52;41.34;35.70;49.62;;
71020;Laerm;58902;51.436;5.980;2024-01-07T00:26:03;36.04;32.88;43.20;;
71020;Laerm;58902;51.436;5.980;2024-01-07T00:26:13;33.71;32.12;35.52;;
71020;Laerm;58902;51.436;5.980;2024-01-07T00:26:24;33.82;32.23;36.54;;
71020;Laerm;58902;51.436;5.980;2024-01-07T00:26:34;35.83;31.03;43.91;;
71020;Laerm;58902;51.436;5.980;2024-01-07T00:26:44;32.40;30.17;37.00;;
71020;Laerm;58902;51.436;5.980;2024-01-07T00:26:55;33.05;30.16;40.68;;
71020;Laerm;58902;51.436;5.980;2024-01-07T00:27:05;33.16;31.04;39.00;;
71020;Laerm;58902;51.436;5.980;2024-01-07T00:27:17;33.37;30.85;40.16;;
71020;Laerm;58902;51.436;5.980;2024-01-07T00:27:28;32.28;30.56;34.37;;
71020;Laerm;58902;51.436;5.980;2024-01-07T00:27:38;32.11;30.31;34.52;;
71020;Laerm;58902;51.436;5.980;2024-01-07T00:27:48;34.98;31.70;38.82;;
71020;Laerm;58902;51.436;5.980;2024-01-07T00:28:01;37.68;31.42;42.46;;
71020;Laerm;58902;51.436;5.980;2024-01-07T00:28:11;32.02;30.09;34.23;;
71020;Laerm;58902;51.436;5.980;2024-01-07T00:28:22;32.46;30.32;36.69;;
71020;Laerm;58902;51.436;5.980;2024-01-07T00:28:32;31.40;30.11;34.62;;
71020;Laerm;58902;51.436;5.980;2024-01-07T00:28:42;31.67;29.89;39.42;;
71020;Laerm;58902;51.436;5.980;2024-01-07T00:28:53;32.66;30.04;41.41;;
71020;Laerm;58902;51.436;5.980;2024-01-07T00:29:03;30.95;29.36;33.73;;
71020;Laerm;58902;51.436;5.980;2024-01-07T00:29:13;30.64;29.31;32.96;;
71020;Laerm;58902;51.436;5.980;2024-01-07T00:29:24;30.65;29.38;33.17;;
71020;Laerm;58902;51.436;5.980;2024-01-07T00:29:34;30.58;29.21;34.11;;
71020;Laerm;58902;51.436;5.980;2024-01-07T00:29:45;30.50;29.26;33.48;;
71020;Laerm;58902;51.436;5.980;2024-01-07T00:29:56;30.52;29.31;32.34;;
71020;Laerm;58902;51.436;5.980;2024-01-07T00:30:06;30.59;29.30;32.36;;
71020;Laerm;58902;51.436;5.980;2024-01-07T00:30:16;30.42;29.14;32.23;;
71020;Laerm;58902;51.436;5.980;2024-01-07T00:30:27;30.86;29.44;32.90;;
71020;Laerm;58902;51.436;5.980;2024-01-07T00:30:37;30.88;29.22;35.17;;
71020;Laerm;58902;51.436;5.980;2024-01-07T00:30:47;30.95;29.64;34.97;;
71020;Laerm;58902;51.436;5.980;2024-01-07T00:30:58;30.85;29.33;32.22;;
71020;Laerm;58902;51.436;5.980;2024-01-07T00:31:08;40.61;29.58;56.45;;
71020;Laerm;58902;51.436;5.980;2024-01-07T00:31:19;31.04;29.84;32.93;;
71020;Laerm;58902;51.436;5.980;2024-01-07T00:31:29;30.94;29.64;32.17;;
71020;Laerm;58902;51.436;5.980;2024-01-07T00:31:39;31.55;30.14;34.05;;
71020;Laerm;58902;51.436;5.980;2024-01-07T00:31:50;34.74;31.90;39.51;;
71020;Laerm;58902;51.436;5.980;2024-01-07T00:32:00;36.94;32.70;40.53;;
71020;Laerm;58902;51.436;5.980;2024-01-07T00:32:11;32.91;30.53;37.57;;
71020;Laerm;58902;51.436;5.980;2024-01-07T00:32:21;33.55;30.61;39.80;;
71020;Laerm;58902;51.436;5.980;2024-01-07T00:32:32;33.50;31.30;36.86;;
71020;Laerm;58902;51.436;5.980;2024-01-07T00:32:42;34.22;31.13;39.88;;
71020;Laerm;58902;51.436;5.980;2024-01-07T00:32:52;33.91;30.56;42.20;;
71020;Laerm;58902;51.436;5.980;2024-01-07T00:33:03;32.55;30.50;36.63;;
71020;Laerm;58902;51.436;5.980;2024-01-07T00:33:13;33.13;30.51;39.33;;
71020;Laerm;58902;51.436;5.980;2024-01-07T00:33:24;35.32;30.11;43.87;;
71020;Laerm;58902;51.436;5.980;2024-01-07T00:33:34;33.12;29.77;40.95;;
71020;Laerm;58902;51.436;5.980;2024-01-07T00:33:45;31.90;30.02;34.94;;
71020;Laerm;58902;51.436;5.980;2024-01-07T00:33:55;31.97;30.27;35.97;;
71020;Laerm;58902;51.436;5.980;2024-01-07T00:34:05;37.00;30.83;42.39;;
71020;Laerm;58902;51.436;5.980;2024-01-07T00:34:16;36.97;33.13;42.07;;
71020;Laerm;58902;51.436;5.980;2024-01-07T00:34:26;37.55;33.26;42.51;;
71020;Laerm;58902;51.436;5.980;2024-01-07T00:34:37;34.34;31.66;36.68;;
71020;Laerm;58902;51.436;5.980;2024-01-07T00:34:47;34.61;31.61;38.15;;
71020;Laerm;58902;51.436;5.980;2024-01-07T00:34:57;33.36;31.25;35.87;;
71020;Laerm;58902;51.436;5.980;2024-01-07T00:35:08;31.42;30.20;33.14;;
71020;Laerm;58902;51.436;5.980;2024-01-07T00:35:18;31.03;29.50;32.76;;
71020;Laerm;58902;51.436;5.980;2024-01-07T00:35:28;30.90;29.29;32.63;;
71020;Laerm;58902;51.436;5.980;2024-01-07T00:35:39;31.00;29.58;32.97;;
71020;Laerm;58902;51.436;5.980;2024-01-07T00:35:49;31.45;29.81;34.51;;
71020;Laerm;58902;51.436;5.980;2024-01-07T00:35:59;33.56;29.71;39.89;;
71020;Laerm;58902;51.436;5.980;2024-01-07T00:36:10;40.26;34.38;45.28;;
71020;Laerm;58902;51.436;5.980;2024-01-07T00:36:20;34.13;30.70;39.53;;
71020;Laerm;58902;51.436;5.980;2024-01-07T00:36:30;30.89;29.60;33.81;;
71020;Laerm;58902;51.436;5.980;2024-01-07T00:36:41;31.01;29.75;32.43;;
71020;Laerm;58902;51.436;5.980;2024-01-07T00:36:51;31.30;30.00;33.09;;
71020;Laerm;58902;51.436;5.980;2024-01-07T00:37:02;31.20;29.73;33.13;;
71020;Laerm;58902;51.436;5.980;2024-01-07T00:37:12;31.13;29.55;34.38;;
71020;Laerm;58902;51.436;5.980;2024-01-07T00:37:22;30.78;29.29;33.30;;
71020;Laerm;58902;51.436;5.980;2024-01-07T00:37:33;31.16;29.64;39.49;;
71020;Laerm;58902;51.436;5.980;2024-01-07T00:37:45;30.91;29.09;33.94;;
71020;Laerm;58902;51.436;5.980;2024-01-07T00:37:55;30.54;29.13;32.36;;
71020;Laerm;58902;51.436;5.980;2024-01-07T00:38:08;30.77;29.18;32.26;;
71020;Laerm;58902;51.436;5.980;2024-01-07T00:38:19;34.17;30.62;39.39;;
71020;Laerm;58902;51.436;5.980;2024-01-07T00:38:29;36.25;31.09;41.15;;
71020;Laerm;58902;51.436;5.980;2024-01-07T00:38:39;33.08;29.56;40.03;;
71020;Laerm;58902;51.436;5.980;2024-01-07T00:38:50;31.54;29.92;34.42;;
71020;Laerm;58902;51.436;5.980;2024-01-07T00:39:00;31.33;29.75;33.69;;
71020;Laerm;58902;51.436;5.980;2024-01-07T00:39:11;33.36;30.66;35.56;;
71020;Laerm;58902;51.436;5.980;2024-01-07T00:39:21;32.34;29.96;35.67;;
71020;Laerm;58902;51.436;5.980;2024-01-07T00:39:31;31.55;29.96;37.59;;
71020;Laerm;58902;51.436;5.980;2024-01-07T00:39:42;31.28;29.48;35.73;;
71020;Laerm;58902;51.436;5.980;2024-01-07T00:39:54;31.59;29.87;34.93;;
71020;Laerm;58902;51.436;5.980;2024-01-07T00:40:04;31.98;29.84;35.40;;
71020;Laerm;58902;51.436;5.980;2024-01-07T00:40:15;32.23;30.18;35.44;;
71020;Laerm;58902;51.436;5.980;2024-01-07T00:40:26;33.89;31.17;37.56;;
71020;Laerm;58902;51.436;5.980;2024-01-07T00:40:36;38.96;32.15;46.29;;
71020;Laerm;58902;51.436;5.980;2024-01-07T00:40:48;41.52;34.64;48.14;;
71020;Laerm;58902;51.436;5.980;2024-01-07T00:40:58;33.26;30.80;35.65;;
71020;Laerm;58902;51.436;5.980;2024-01-07T00:41:09;31.88;30.00;34.31;;
71020;Laerm;58902;51.436;5.980;2024-01-07T00:41:19;32.28;30.50;35.71;;
71020;Laerm;58902;51.436;5.980;2024-01-07T00:41:29;34.97;32.19;41.40;;
71020;Laerm;58902;51.436;5.980;2024-01-07T00:41:43;34.27;31.06;41.48;;
71020;Laerm;58902;51.436;5.980;2024-01-07T00:41:53;31.70;30.23;33.76;;
71020;Laerm;58902;51.436;5.980;2024-01-07T00:42:03;31.06;29.56;33.38;;
71020;Laerm;58902;51.436;5.980;2024-01-07T00:42:14;31.29;29.27;36.59;;
71020;Laerm;58902;51.436;5.980;2024-01-07T00:42:24;30.85;29.62;33.15;;
71020;Laerm;58902;51.436;5.980;2024-01-07T00:42:34;30.77;29.26;32.92;;
71020;Laerm;58902;51.436;5.980;2024-01-07T00:42:45;30.65;29.23;32.60;;
71020;Laerm;58902;51.436;5.980;2024-01-07T00:42:55;30.46;28.83;31.80;;
71020;Laerm;58902;51.436;5.980;2024-01-07T00:43:05;30.40;29.13;31.81;;
71020;Laerm;58902;51.436;5.980;2024-01-07T00:43:16;30.39;29.11;31.58;;
71020;Laerm;58902;51.436;5.980;2024-01-07T00:43:26;30.62;28.95;36.22;;
71020;Laerm;58902;51.436;5.980;2024-01-07T00:43:36;30.69;29.43;34.76;;
71020;Laerm;58902;51.436;5.980;2024-01-07T00:43:47;30.53;29.11;32.34;;
71020;Laerm;58902;51.436;5.980;2024-01-07T00:43:57;30.46;29.44;32.65;;
71020;Laerm;58902;51.436;5.980;2024-01-07T00:44:07;30.35;29.27;32.32;;
71020;Laerm;58902;51.436;5.980;2024-01-07T00:44:18;32.64;29.42;44.03;;
71020;Laerm;58902;51.436;5.980;2024-01-07T00:44:28;31.59;29.07;37.36;;
71020;Laerm;58902;51.436;5.980;2024-01-07T00:44:38;30.56;29.38;32.14;;
71020;Laerm;58902;51.436;5.980;2024-01-07T00:44:49;32.10;29.18;44.89;;
71020;Laerm;58902;51.436;5.980;2024-01-07T00:44:59;31.87;29.50;40.01;;
71020;Laerm;58902;51.436;5.980;2024-01-07T00:45:09;31.10;29.06;36.74;;
71020;Laerm;58902;51.436;5.980;2024-01-07T00:45:20;31.58;28.97;40.64;;
71020;Laerm;58902;51.436;5.980;2024-01-07T00:45:31;31.04;29.71;34.00;;
71020;Laerm;58902;51.436;5.980;2024-01-07T00:45:41;31.28;29.92;33.31;;
71020;Laerm;58902;51.436;5.980;2024-01-07T00:45:52;31.47;29.94;33.58;;
71020;Laerm;58902;51.436;5.980;2024-01-07T00:46:02;35.03;30.92;38.40;;
71020;Laerm;58902;51.436;5.980;2024-01-07T00:46:13;34.69;31.22;40.82;;
71020;Laerm;58902;51.436;5.980;2024-01-07T00:46:23;32.90;30.22;36.58;;
71020;Laerm;58902;51.436;5.980;2024-01-07T00:46:33;32.37;30.42;37.80;;
71020;Laerm;58902;51.436;5.980;2024-01-07T00:46:44;33.84;30.72;44.22;;
71020;Laerm;58902;51.436;5.980;2024-01-07T00:46:54;31.18;29.62;38.26;;
71020;Laerm;58902;51.436;5.980;2024-01-07T00:47:04;35.58;31.18;40.86;;
71020;Laerm;58902;51.436;5.980;2024-01-07T00:47:15;37.59;32.84;41.31;;
71020;Laerm;58902;51.436;5.980;2024-01-07T00:47:25;32.86;30.99;35.03;;
71020;Laerm;58902;51.436;5.980;2024-01-07T00:47:35;34.89;30.98;39.26;;
71020;Laerm;58902;51.436;5.980;2024-01-07T00:47:46;34.93;31.91;39.10;;
71020;Laerm;58902;51.436;5.980;2024-01-07T00:47:56;32.81;31.57;34.50;;
71020;Laerm;58902;51.436;5.980;2024-01-07T00:48:06;36.14;33.14;39.96;;
71020;Laerm;58902;51.436;5.980;2024-01-07T00:48:17;33.99;31.11;37.24;;
71020;Laerm;58902;51.436;5.980;2024-01-07T00:48:27;30.93;29.71;33.11;;
71020;Laerm;58902;51.436;5.980;2024-01-07T00:48:38;31.01;29.44;33.19;;
71020;Laerm;58902;51.436;5.980;2024-01-07T00:48:48;31.05;29.94;32.37;;
71020;Laerm;58902;51.436;5.980;2024-01-07T00:48:58;31.13;29.97;32.66;;
71020;Laerm;58902;51.436;5.980;2024-01-07T00:49:09;31.84;30.06;36.34;;
71020;Laerm;58902;51.436;5.980;2024-01-07T00:49:19;32.36;30.38;34.85;;
71020;Laerm;58902;51.436;5.980;2024-01-07T00:49:29;31.67;29.84;35.77;;
71020;Laerm;58902;51.436;5.980;2024-01-07T00:49:40;32.08;29.65;40.83;;
71020;Laerm;58902;51.436;5.980;2024-01-07T00:49:51;31.23;29.54;34.13;;
71020;Laerm;58902;51.436;5.980;2024-01-07T00:50:02;30.68;29.46;32.44;;
71020;Laerm;58902;51.436;5.980;2024-01-07T00:50:12;30.43;29.26;33.61;;
71020;Laerm;58902;51.436;5.980;2024-01-07T00:50:22;30.32;29.12;32.23;;
71020;Laerm;58902;51.436;5.980;2024-01-07T00:50:33;30.43;29.15;31.67;;
71020;Laerm;58902;51.436;5.980;2024-01-07T00:50:43;30.38;29.23;31.64;;
71020;Laerm;58902;51.436;5.980;2024-01-07T00:50:53;30.31;29.03;31.88;;
71020;Laerm;58902;51.436;5.980;2024-01-07T00:51:05;30.50;29.27;31.82;;
71020;Laerm;58902;51.436;5.980;2024-01-07T00:51:15;31.32;29.62;32.63;;
71020;Laerm;58902;51.436;5.980;2024-01-07T00:51:25;31.71;29.94;34.94;;
71020;Laerm;58902;51.436;5.980;2024-01-07T00:51:36;31.36;29.47;33.22;;
71020;Laerm;58902;51.436;5.980;2024-01-07T00:51:46;30.67;29.29;38.30;;
71020;Laerm;58902;51.436;5.980;2024-01-07T00:51:56;34.22;30.30;37.28;;
71020;Laerm;58902;51.436;5.980;2024-01-07T00:52:07;38.53;33.25;41.80;;
71020;Laerm;58902;51.436;5.980;2024-01-07T00:52:17;31.84;29.56;35.42;;
71020;Laerm;58902;51.436;5.980;2024-01-07T00:52:28;38.64;29.54;52.01;;
71020;Laerm;58902;51.436;5.980;2024-01-07T00:52:38;30.55;28.98;32.96;;
71020;Laerm;58902;51.436;5.980;2024-01-07T00:52:48;30.88;29.28;35.42;;
71020;Laerm;58902;51.436;5.980;2024-01-07T00:52:59;31.32;29.32;36.40;;
71020;Laerm;58902;51.436;5.980;2024-01-07T00:53:09;31.08;29.54;36.85;;
71020;Laerm;58902;51.436;5.980;2024-01-07T00:53:19;30.80;29.42;32.96;;
71020;Laerm;58902;51.436;5.980;2024-01-07T00:53:30;30.71;29.47;32.59;;
71020;Laerm;58902;51.436;5.980;2024-01-07T00:53:40;30.68;29.61;32.70;;
71020;Laerm;58902;51.436;5.980;2024-01-07T00:53:51;30.67;29.31;33.15;;
71020;Laerm;58902;51.436;5.980;2024-01-07T00:54:01;30.71;29.21;33.40;;
71020;Laerm;58902;51.436;5.980;2024-01-07T00:54:11;30.82;29.35;34.69;;
71020;Laerm;58902;51.436;5.980;2024-01-07T00:54:22;30.79;29.67;32.48;;
71020;Laerm;58902;51.436;5.980;2024-01-07T00:54:32;30.74;29.33;32.61;;
71020;Laerm;58902;51.436;5.980;2024-01-07T00:54:42;32.49;29.71;38.53;;
71020;Laerm;58902;51.436;5.980;2024-01-07T00:54:53;36.62;32.92;40.08;;
71020;Laerm;58902;51.436;5.980;2024-01-07T00:55:04;33.38;30.76;37.45;;
71020;Laerm;58902;51.436;5.980;2024-01-07T00:55:14;31.22;29.75;37.00;;
71020;Laerm;58902;51.436;5.980;2024-01-07T00:55:24;30.77;29.17;34.09;;
71020;Laerm;58902;51.436;5.980;2024-01-07T00:55:35;31.05;29.30;32.24;;
71020;Laerm;58902;51.436;5.980;2024-01-07T00:55:45;31.33;29.88;33.26;;
71020;Laerm;58902;51.436;5.980;2024-01-07T00:55:56;31.45;29.96;36.63;;
71020;Laerm;58902;51.436;5.980;2024-01-07T00:56:07;31.49;29.34;37.98;;
71020;Laerm;58902;51.436;5.980;2024-01-07T00:56:17;32.18;29.59;36.03;;
71020;Laerm;58902;51.436;5.980;2024-01-07T00:56:28;32.18;29.33;36.43;;
71020;Laerm;58902;51.436;5.980;2024-01-07T00:56:38;32.86;29.79;40.86;;
71020;Laerm;58902;51.436;5.980;2024-01-07T00:56:48;33.26;29.67;43.60;;
71020;Laerm;58902;51.436;5.980;2024-01-07T00:56:59;31.80;29.84;34.25;;
71020;Laerm;58902;51.436;5.980;2024-01-07T00:57:10;30.60;29.12;34.30;;
71020;Laerm;58902;51.436;5.980;2024-01-07T00:57:21;30.23;28.84;31.63;;
71020;Laerm;58902;51.436;5.980;2024-01-07T00:57:32;30.33;28.92;33.02;;
71020;Laerm;58902;51.436;5.980;2024-01-07T00:57:43;30.26;28.92;34.54;;
71020;Laerm;58902;51.436;5.980;2024-01-07T00:57:53;30.22;28.80;31.68;;
71020;Laerm;58902;51.436;5.980;2024-01-07T00:58:03;30.17;29.02;32.30;;
71020;Laerm;58902;51.436;5.980;2024-01-07T00:58:14;30.18;28.72;31.56;;
71020;Laerm;58902;51.436;5.980;2024-01-07T00:58:24;30.31;29.25;31.87;;
71020;Laerm;58902;51.436;5.980;2024-01-07T00:58:35;31.26;29.40;39.30;;
71020;Laerm;58902;51.436;5.980;2024-01-07T00:58:46;32.85;29.62;40.81;;